Time;durP1;ratioP1;P1;durP2;ratioP2;P2;SDS_P1;SDS_P2;PMS_P1;PMS_P2;Temp;Humidity;BMP_temperature;BMP_pressure;BME280_temperature;BME280_humidity;BME280_pressure;Samples;Min_cycle;Max_cycle;Signal;HPM_P1;HPM_P2
2024/01/23 00:02:45;;;;;;;23.53;13.40;;;4.40;90.30;;;;;;6118866;23;20004;-74
2024/01/23 00:05:11;;;;;;;21.63;12.80;;;4.30;90.30;;;;;;6214909;23;20055;-75
2024/01/23 00:07:37;;;;;;;22.40;12.77;;;4.30;90.30;;;;;;6216641;23;20008;-74
2024/01/23 00:10:03;;;;;;;24.47;13.63;;;4.30;90.30;;;;;;6216810;23;19997;-74
2024/01/23 00:12:29;;;;;;;22.70;13.97;;;4.30;90.30;;;;;;6215804;23;20113;-75
2024/01/23 00:14:57;;;;;;;21.73;13.03;;;4.30;90.40;;;;;;6216059;23;20083;-74
2024/01/23 00:17:22;;;;;;;21.37;13.43;;;4.30;90.50;;;;;;6216101;23;20051;-75
2024/01/23 00:19:48;;;;;;;25.30;13.20;;;4.30;90.50;;;;;;6216206;23;19996;-74
2024/01/23 00:22:14;;;;;;;21.70;12.87;;;4.30;90.50;;;;;;6216229;23;20005;-74
2024/01/23 00:24:40;;;;;;;23.50;13.27;;;4.40;90.80;;;;;;6216466;23;20412;-74
2024/01/23 00:27:05;;;;;;;22.80;13.90;;;4.30;90.90;;;;;;6216319;23;20031;-75
2024/01/23 00:29:34;;;;;;;20.07;14.00;;;4.30;90.90;;;;;;6216368;23;20001;-75
2024/01/23 00:32:00;;;;;;;23.40;14.27;;;4.30;91.10;;;;;;6216310;23;20367;-74
2024/01/23 00:34:26;;;;;;;26.17;13.13;;;4.30;91.20;;;;;;6216574;23;20400;-74
2024/01/23 00:36:52;;;;;;;19.43;11.70;;;4.30;91.40;;;;;;6216079;23;20016;-74
2024/01/23 00:39:18;;;;;;;20.17;12.00;;;4.30;91.60;;;;;;6216270;23;20004;-74
2024/01/23 00:41:44;;;;;;;21.57;12.40;;;4.20;91.70;;;;;;6216349;23;20004;-68
2024/01/23 00:44:10;;;;;;;23.03;13.47;;;4.20;91.70;;;;;;6216186;23;20023;-68
2024/01/23 00:46:35;;;;;;;21.97;12.47;;;4.20;91.70;;;;;;6216310;23;20007;-69
2024/01/23 00:49:01;;;;;;;19.40;12.07;;;4.20;91.90;;;;;;6216215;23;20027;-70
2024/01/23 00:51:29;;;;;;;18.83;11.43;;;4.20;92.00;;;;;;6216506;23;20000;-68
2024/01/23 00:53:54;;;;;;;22.23;11.90;;;4.20;92.10;;;;;;6216203;23;20000;-71
2024/01/23 00:56:20;;;;;;;22.20;12.03;;;4.20;92.50;;;;;;6216242;23;20067;-65
2024/01/23 00:58:46;;;;;;;23.27;12.17;;;4.10;92.80;;;;;;6216387;23;20334;-69
2024/01/23 01:01:12;;;;;;;21.30;11.67;;;4.10;92.80;;;;;;6215895;23;20008;-71
2024/01/23 01:03:39;;;;;;;18.90;12.60;;;4.10;93.20;;;;;;6216240;23;20000;-75
2024/01/23 01:06:04;;;;;;;20.60;12.57;;;4.10;93.20;;;;;;6216957;23;20000;-74
2024/01/23 01:08:30;;;;;;;18.37;12.30;;;4.10;93.50;;;;;;6216832;23;20493;-74
2024/01/23 01:10:57;;;;;;;23.20;11.90;;;4.10;93.70;;;;;;6216597;23;20031;-76
2024/01/23 01:13:23;;;;;;;19.87;12.13;;;4.00;93.80;;;;;;6216677;23;20004;-75
2024/01/23 01:27:01;;;;;;;21.77;12.80;;;3.90;94.60;;;;;;6036765;23;20012;-74
2024/01/23 01:36:18;;;;;;;;;;;;;;;;;;;;;
2024/01/23 01:38:56;;;;;;;20.40;12.30;;;3.80;95.40;;;;;;6149310;23;20084;-74
2024/01/23 01:41:22;;;;;;;22.37;12.90;;;3.80;95.60;;;;;;6198970;23;20008;-74
2024/01/23 01:43:48;;;;;;;19.30;11.57;;;3.70;95.60;;;;;;6215765;23;20004;-74
2024/01/23 01:46:21;;;;;;;24.07;11.63;;;3.70;96.00;;;;;;6216054;23;20331;-75
2024/01/23 01:48:47;;;;;;;19.63;12.45;;;3.60;96.30;;;;;;6215812;23;20004;-74
2024/01/23 01:51:15;;;;;;;22.37;13.23;;;3.60;96.30;;;;;;6215824;23;20011;-75
2024/01/23 01:53:44;;;;;;;17.67;12.17;;;3.60;96.40;;;;;;6188954;23;20000;-72
2024/01/23 01:56:11;;;;;;;19.10;11.90;;;3.60;96.60;;;;;;6215428;23;20009;-74
2024/01/23 01:58:39;;;;;;;20.17;12.47;;;3.50;96.70;;;;;;6212943;23;20013;-75
2024/01/23 02:01:05;;;;;;;19.63;12.80;;;3.50;96.60;;;;;;6212414;23;20012;-74
2024/01/23 02:03:31;;;;;;;19.83;12.27;;;3.40;96.70;;;;;;6212549;23;20063;-74
2024/01/23 02:06:03;;;;;;;20.23;12.40;;;3.40;97.10;;;;;;6215160;23;20008;-74
2024/01/23 02:08:30;;;;;;;19.38;12.57;;;3.40;97.40;;;;;;6215416;23;20428;-75
2024/01/23 02:10:56;;;;;;;21.97;13.07;;;3.40;97.90;;;;;;6214993;23;20559;-72
2024/01/23 02:13:23;;;;;;;23.93;13.17;;;3.30;98.00;;;;;;6215118;23;20000;-74
2024/01/23 02:15:49;;;;;;;23.80;13.17;;;3.30;98.20;;;;;;6215217;23;20495;-74
2024/01/23 02:18:15;;;;;;;20.13;13.90;;;3.20;98.40;;;;;;6215410;23;20023;-74
2024/01/23 02:20:41;;;;;;;22.23;13.63;;;3.20;98.50;;;;;;6215576;23;20008;-73
2024/01/23 02:23:16;;;;;;;22.80;14.13;;;3.10;98.80;;;;;;6215433;23;20005;-74
2024/01/23 02:25:44;;;;;;;23.07;14.27;;;3.10;99.00;;;;;;6215174;23;20021;-74
2024/01/23 02:28:10;;;;;;;24.97;14.83;;;3.00;99.20;;;;;;6214700;23;20001;-74
2024/01/23 02:30:36;;;;;;;25.90;15.27;;;3.00;99.90;;;;;;6214605;23;19996;-74
2024/01/23 02:33:03;;;;;;;24.00;14.27;;;3.00;99.90;;;;;;6214950;23;20123;-73
2024/01/23 02:35:30;;;;;;;27.90;13.80;;;3.00;99.90;;;;;;6215055;23;20422;-74
2024/01/23 02:37:56;;;;;;;21.03;12.83;;;3.00;99.90;;;;;;6215349;23;20430;-74
2024/01/23 02:40:22;;;;;;;22.07;12.10;;;3.00;99.90;;;;;;6215314;23;20449;-72
2024/01/23 02:42:48;;;;;;;21.47;12.27;;;3.00;99.90;;;;;;6215213;23;20004;-74
2024/01/23 02:45:14;;;;;;;22.60;11.97;;;3.00;99.90;;;;;;6215524;23;20076;-75
2024/01/23 02:47:40;;;;;;;20.17;12.17;;;2.90;99.90;;;;;;6215725;23;20001;-75
2024/01/23 02:50:07;;;;;;;18.13;11.97;;;2.90;99.90;;;;;;6215795;23;20073;-74
2024/01/23 02:52:33;;;;;;;19.23;11.50;;;2.90;99.90;;;;;;6215831;23;20068;-74
2024/01/23 02:55:03;;;;;;;17.40;11.10;;;2.90;99.90;;;;;;6215690;23;20343;-74
2024/01/23 03:04:45;;;;;;;19.70;11.57;;;2.90;99.90;;;;;;6036384;23;20095;-73
2024/01/23 03:11:21;;;;;;;18.13;10.80;;;2.90;99.90;;;;;;5924393;23;20052;-76
2024/01/23 03:14:49;;;;;;;17.03;11.63;;;2.90;99.90;;;;;;5925056;24;20016;-74
2024/01/23 03:21:07;;;;;;;17.33;10.80;;;2.90;99.90;;;;;;5910030;23;20018;-74
2024/01/23 03:23:33;;;;;;;18.00;10.30;;;2.90;99.90;;;;;;6036333;23;20342;-74
2024/01/23 03:25:59;;;;;;;16.00;9.47;;;2.90;99.90;;;;;;6169433;23;19997;-73
2024/01/23 03:28:25;;;;;;;13.97;9.67;;;2.90;99.90;;;;;;6184959;23;20005;-74
2024/01/23 03:30:51;;;;;;;18.03;9.07;;;3.00;99.90;;;;;;6184909;23;20001;-74
2024/01/23 03:33:17;;;;;;;14.57;9.53;;;3.00;99.90;;;;;;6184886;23;20001;-75
2024/01/23 03:35:43;;;;;;;16.43;9.50;;;3.00;99.90;;;;;;6185019;23;20008;-74
2024/01/23 03:38:09;;;;;;;17.33;9.90;;;3.00;99.90;;;;;;6184890;23;20016;-74
2024/01/23 03:40:34;;;;;;;18.83;10.10;;;3.00;99.90;;;;;;6184427;23;20021;-73
2024/01/23 03:43:00;;;;;;;16.67;10.30;;;3.00;99.90;;;;;;6186927;23;20387;-75
2024/01/23 03:45:26;;;;;;;18.20;10.13;;;3.00;99.90;;;;;;6186742;23;20001;-74
2024/01/23 03:47:51;;;;;;;17.07;9.87;;;3.00;99.90;;;;;;6187074;23;20021;-71
2024/01/23 03:50:17;;;;;;;19.73;9.37;;;3.00;99.90;;;;;;6186822;23;19997;-74
2024/01/23 03:52:43;;;;;;;18.77;9.63;;;3.00;99.90;;;;;;6187018;23;20013;-69
2024/01/23 03:55:09;;;;;;;14.23;9.00;;;3.00;99.90;;;;;;6186501;23;20001;-75
2024/01/23 03:57:35;;;;;;;14.27;8.13;;;2.90;99.90;;;;;;6186434;23;20068;-74
2024/01/23 04:00:00;;;;;;;12.37;8.33;;;2.90;99.90;;;;;;6186863;23;20052;-75
2024/01/23 04:02:27;;;;;;;14.47;8.33;;;2.90;99.90;;;;;;6186855;23;20005;-73
2024/01/23 04:04:53;;;;;;;16.27;8.47;;;2.90;99.90;;;;;;6187111;23;20483;-71
2024/01/23 04:07:19;;;;;;;13.67;8.43;;;3.00;99.90;;;;;;6186981;23;20013;-68
2024/01/23 04:09:44;;;;;;;13.80;7.90;;;3.00;99.90;;;;;;6186391;23;20012;-67
2024/01/23 04:12:10;;;;;;;12.80;8.43;;;2.90;99.90;;;;;;6205384;23;20016;-65
2024/01/23 04:14:36;;;;;;;12.93;7.67;;;3.00;99.90;;;;;;6216295;23;20001;-66
2024/01/23 04:17:02;;;;;;;13.90;8.20;;;3.00;99.90;;;;;;6216932;23;20008;-66
2024/01/23 04:19:28;;;;;;;14.93;11.37;;;3.00;99.90;;;;;;6217032;23;20016;-66
2024/01/23 04:21:54;;;;;;;17.90;14.17;;;3.00;99.90;;;;;;6216221;23;20335;-69
2024/01/23 04:24:20;;;;;;;19.23;9.50;;;3.00;99.90;;;;;;6216545;23;20003;-74
2024/01/23 04:26:49;;;;;;;15.07;8.93;;;3.00;99.90;;;;;;6215994;23;20055;-74
2024/01/23 04:29:15;;;;;;;13.07;8.57;;;3.00;99.90;;;;;;6217829;23;20312;-74
2024/01/23 04:31:41;;;;;;;16.23;11.00;;;3.00;99.90;;;;;;6217220;23;20048;-74
2024/01/23 04:34:07;;;;;;;17.57;10.93;;;3.00;99.90;;;;;;6217311;23;20007;-74
2024/01/23 04:36:36;;;;;;;20.67;11.80;;;2.90;99.90;;;;;;6217027;23;20017;-74
2024/01/23 04:39:49;;;;;;;;;;;;;;;;;;;;;
2024/01/23 04:42:17;;;;;;;21.53;14.37;;;;;;;;;;6091832;23;20095;-76
2024/01/23 04:48:53;;;;;;;20.47;15.53;;;2.60;99.90;;;;;;6216740;23;20399;-77
2024/01/23 04:52:01;;;;;;;;;;;;;;;;;;;;;
2024/01/23 04:55:10;;;;;;;19.43;13.23;;;2.50;99.90;;;;;;6056468;23;20081;-76
2024/01/23 04:57:36;;;;;;;17.20;12.23;;;2.50;99.90;;;;;;6153514;23;20014;-75
2024/01/23 05:00:35;;;;;;;20.03;12.17;;;2.40;99.90;;;;;;6154124;23;20050;-76
2024/01/23 05:03:01;;;;;;;19.20;12.50;;;2.50;99.90;;;;;;6153278;23;20013;-76
2024/01/23 05:05:29;;;;;;;23.20;12.90;;;2.40;99.90;;;;;;6153678;23;20348;-71
2024/01/23 05:07:55;;;;;;;21.17;13.07;;;2.40;99.90;;;;;;6201451;23;20060;-77
2024/01/23 05:10:20;;;;;;;18.63;12.33;;;2.40;99.90;;;;;;6216500;23;20004;-76
2024/01/23 05:12:46;;;;;;;21.63;14.37;;;2.30;99.90;;;;;;6216280;23;20032;-73
2024/01/23 05:15:12;;;;;;;23.30;13.47;;;2.30;99.90;;;;;;6216322;23;20012;-76
2024/01/23 05:17:38;;;;;;;20.60;12.20;;;;;;;;;;6216264;23;20123;-77
2024/01/23 05:20:04;;;;;;;20.40;13.70;;;2.20;99.90;;;;;;6216334;23;20005;-76
2024/01/23 05:22:30;;;;;;;20.17;12.53;;;2.20;99.90;;;;;;6216079;23;20008;-76
2024/01/23 05:24:56;;;;;;;23.20;12.93;;;2.20;99.90;;;;;;6215757;23;20007;-76
2024/01/23 05:27:22;;;;;;;24.17;14.07;;;2.20;99.90;;;;;;6216272;23;20064;-74
2024/01/23 05:29:48;;;;;;;19.13;12.30;;;2.20;99.90;;;;;;6216269;23;20001;-76
2024/01/23 05:32:14;;;;;;;24.43;13.73;;;2.10;99.90;;;;;;6216141;23;20593;-76
2024/01/23 05:34:40;;;;;;;22.43;13.30;;;2.10;99.90;;;;;;6215887;23;20007;-77
2024/01/23 05:37:06;;;;;;;20.67;13.23;;;2.10;99.90;;;;;;6215817;23;20087;-73
2024/01/23 05:39:38;;;;;;;22.40;12.87;;;2.20;99.90;;;;;;6215904;23;20028;-74
2024/01/23 05:42:06;;;;;;;22.48;12.45;;;2.10;99.90;;;;;;6215952;23;20514;-75
2024/01/23 05:44:32;;;;;;;18.50;11.93;;;2.10;99.90;;;;;;6215690;23;20431;-76
2024/01/23 05:46:58;;;;;;;21.50;12.30;;;2.10;99.90;;;;;;6215917;23;20059;-63
2024/01/23 05:49:24;;;;;;;20.87;12.83;;;2.00;99.90;;;;;;6216107;23;20005;-74
2024/01/23 05:51:50;;;;;;;20.83;12.30;;;2.10;99.90;;;;;;6215872;23;20078;-74
2024/01/23 05:54:15;;;;;;;20.23;12.67;;;2.10;99.90;;;;;;6215706;23;20001;-74
2024/01/23 05:56:41;;;;;;;18.80;12.33;;;2.10;99.90;;;;;;6215403;23;20012;-74
2024/01/23 05:59:07;;;;;;;18.57;12.10;;;2.00;99.90;;;;;;6215663;23;20055;-75
2024/01/23 06:01:33;;;;;;;24.47;12.83;;;1.90;99.90;;;;;;6188771;23;20020;-73
2024/01/23 06:03:59;;;;;;;17.90;11.73;;;1.90;99.90;;;;;;6214976;23;20019;-73
2024/01/23 06:06:26;;;;;;;21.60;13.17;;;1.90;99.90;;;;;;6215788;23;20007;-74
2024/01/23 06:08:51;;;;;;;18.47;12.20;;;1.90;99.90;;;;;;6215880;23;20506;-74
2024/01/23 06:11:17;;;;;;;20.13;12.77;;;1.90;99.90;;;;;;6215655;23;20008;-74
2024/01/23 06:13:43;;;;;;;22.57;13.27;;;1.80;99.90;;;;;;6215789;23;20043;-75
2024/01/23 06:16:10;;;;;;;19.00;12.27;;;1.80;99.90;;;;;;6215667;23;20009;-74
2024/01/23 06:18:36;;;;;;;23.10;12.50;;;1.80;99.90;;;;;;6214997;23;20036;-74
2024/01/23 06:21:02;;;;;;;20.07;12.07;;;1.80;99.90;;;;;;6215100;23;20001;-74
2024/01/23 06:23:28;;;;;;;22.47;12.77;;;1.80;99.90;;;;;;6215295;23;20492;-74
2024/01/23 06:25:54;;;;;;;21.53;13.60;;;1.80;99.90;;;;;;6215663;23;20000;-74
2024/01/23 06:28:20;;;;;;;25.07;13.93;;;1.80;99.90;;;;;;6215430;23;20000;-74
2024/01/23 06:30:46;;;;;;;26.70;12.20;;;1.80;99.90;;;;;;6215421;23;20092;-75
2024/01/23 06:33:12;;;;;;;24.73;12.77;;;1.80;99.90;;;;;;6188411;23;20016;-74
2024/01/23 06:35:38;;;;;;;29.47;14.37;;;1.80;99.90;;;;;;6215373;23;20001;-75
2024/01/23 06:38:04;;;;;;;23.03;13.80;;;1.80;99.90;;;;;;6215286;23;20060;-73
2024/01/23 06:40:30;;;;;;;28.97;14.60;;;1.80;99.90;;;;;;6215411;23;20000;-75
2024/01/23 06:42:56;;;;;;;31.73;16.40;;;1.80;99.90;;;;;;6216183;23;20007;-75
2024/01/23 06:45:22;;;;;;;27.17;15.27;;;1.90;99.90;;;;;;6216058;23;19997;-75
2024/01/23 06:47:48;;;;;;;31.97;16.83;;;1.90;99.90;;;;;;6215910;23;20055;-75
2024/01/23 06:50:15;;;;;;;28.57;16.83;;;1.90;99.90;;;;;;6215862;23;20315;-74
2024/01/23 06:59:53;;;;;;;34.63;18.50;;;1.80;99.90;;;;;;6036308;23;20568;-75
2024/01/23 07:08:53;;;;;;;28.83;15.27;;;1.90;99.90;;;;;;6066065;23;20022;-75
2024/01/23 07:11:47;;;;;;;30.60;16.97;;;2.00;99.90;;;;;;6065090;23;20129;-75
2024/01/23 07:15:09;;;;;;;31.47;16.30;;;2.00;99.90;;;;;;6064797;23;20029;-75
2024/01/23 07:17:38;;;;;;;29.33;16.43;;;2.10;99.90;;;;;;6054894;23;20036;-75
2024/01/23 07:20:05;;;;;;;30.13;17.13;;;2.10;99.90;;;;;;6185509;23;20312;-71
2024/01/23 07:22:31;;;;;;;35.07;17.03;;;2.10;99.90;;;;;;6185274;23;20005;-74
2024/01/23 07:25:01;;;;;;;35.63;17.83;;;2.10;99.90;;;;;;6184742;23;20080;-74
2024/01/23 07:27:26;;;;;;;36.63;18.50;;;2.20;99.90;;;;;;6184972;23;20354;-75
2024/01/23 07:29:52;;;;;;;36.07;18.30;;;2.20;99.90;;;;;;6184816;23;20040;-72
2024/01/23 07:32:18;;;;;;;34.30;18.57;;;2.20;99.90;;;;;;6185100;23;20055;-75
2024/01/23 07:34:44;;;;;;;54.33;18.57;;;2.30;99.90;;;;;;6185173;23;20004;-76
2024/01/23 07:37:09;;;;;;;71.57;20.77;;;2.40;99.90;;;;;;6184453;23;20068;-79
2024/01/23 07:39:36;;;;;;;65.83;22.27;;;2.30;99.90;;;;;;6185284;23;20028;-77
2024/01/23 07:42:03;;;;;;;45.30;20.97;;;2.30;99.90;;;;;;6184742;23;20025;-77
2024/01/23 07:44:32;;;;;;;57.93;21.47;;;2.30;99.90;;;;;;6184655;23;20458;-74
2024/01/23 07:46:58;;;;;;;51.53;21.97;;;2.30;99.90;;;;;;6184171;23;20091;-80
2024/01/23 07:49:24;;;;;;;54.73;21.67;;;2.30;99.90;;;;;;6184411;23;20420;-80
2024/01/23 07:51:51;;;;;;;54.37;21.00;;;2.30;99.90;;;;;;6185110;23;20076;-78
2024/01/23 07:54:17;;;;;;;57.53;22.37;;;2.30;99.90;;;;;;6184897;23;20009;-73
2024/01/23 07:56:43;;;;;;;65.17;22.00;;;2.30;99.90;;;;;;6184351;23;20024;-76
2024/01/23 07:59:09;;;;;;;57.50;20.27;;;2.40;99.90;;;;;;6184144;23;20071;-76
2024/01/23 08:01:36;;;;;;;50.20;21.37;;;2.40;99.90;;;;;;6184595;23;20024;-75
2024/01/23 08:04:02;;;;;;;41.23;19.30;;;2.40;99.90;;;;;;6184413;23;20008;-76
2024/01/23 08:06:28;;;;;;;32.70;18.60;;;2.50;99.90;;;;;;6182542;23;20076;-75
2024/01/23 08:08:54;;;;;;;34.17;18.13;;;2.40;99.90;;;;;;6182228;23;20013;-74
2024/01/23 08:11:22;;;;;;;31.57;17.10;;;2.50;99.90;;;;;;6183195;23;20012;-77
2024/01/23 08:13:48;;;;;;;29.23;17.30;;;2.50;99.90;;;;;;6184530;23;20422;-76
2024/01/23 08:16:14;;;;;;;26.77;15.17;;;2.60;99.90;;;;;;6184371;23;20009;-75
2024/01/23 08:18:40;;;;;;;16.97;10.60;;;2.70;99.90;;;;;;6184471;23;20001;-75
2024/01/23 08:21:07;;;;;;;22.73;12.40;;;2.80;99.90;;;;;;6184969;23;20076;-76
2024/01/23 08:23:33;;;;;;;32.00;14.40;;;3.00;99.90;;;;;;6185503;23;20319;-76
2024/01/23 08:26:01;;;;;;;32.87;17.00;;;3.10;99.90;;;;;;6185043;23;20080;-75
2024/01/23 08:28:27;;;;;;;30.60;15.67;;;3.20;99.90;;;;;;6185887;23;20008;-65
2024/01/23 08:31:02;;;;;;;33.90;17.60;;;3.20;99.90;;;;;;6186956;23;20359;-65
2024/01/23 08:43:43;;;;;;;31.10;17.40;;;3.60;99.90;;;;;;5897180;24;20014;-65
2024/01/23 08:46:24;;;;;;;31.73;18.23;;;3.70;99.90;;;;;;5894717;24;20329;-64
2024/01/23 08:49:11;;;;;;;27.97;17.83;;;3.80;99.90;;;;;;5867498;24;20018;-65
2024/01/23 08:51:38;;;;;;;42.13;19.43;;;3.80;99.90;;;;;;5870552;24;20006;-66
2024/01/23 08:54:19;;;;;;;35.37;19.07;;;3.90;99.90;;;;;;5981792;23;20008;-65
2024/01/23 08:56:47;;;;;;;38.80;18.40;;;3.90;99.90;;;;;;6067340;23;20017;-65
2024/01/23 08:59:16;;;;;;;34.37;20.53;;;4.00;99.90;;;;;;6185744;23;20029;-66
2024/01/23 09:01:42;;;;;;;31.60;16.93;;;4.00;99.90;;;;;;6185873;23;20001;-65
2024/01/23 09:04:08;;;;;;;20.37;10.67;;;4.00;99.90;;;;;;6186663;23;20039;-65
2024/01/23 09:06:35;;;;;;;14.23;8.43;;;4.10;99.90;;;;;;6185614;23;20354;-65
2024/01/23 09:09:01;;;;;;;14.47;8.13;;;4.20;99.90;;;;;;6185923;23;20088;-65
2024/01/23 09:11:27;;;;;;;12.93;6.70;;;4.30;99.90;;;;;;6184262;23;20032;-65
2024/01/23 09:13:53;;;;;;;11.60;5.67;;;4.40;99.90;;;;;;6185582;23;20005;-65
2024/01/23 09:16:18;;;;;;;9.47;5.53;;;4.40;99.90;;;;;;6185229;23;20013;-65
2024/01/23 09:18:48;;;;;;;10.10;6.00;;;4.50;99.90;;;;;;6184902;23;20024;-65
2024/01/23 09:21:17;;;;;;;10.17;5.63;;;4.60;99.90;;;;;;6185454;23;20008;-65
2024/01/23 09:23:43;;;;;;;16.47;8.30;;;4.70;99.90;;;;;;6185491;23;20049;-65
2024/01/23 09:26:11;;;;;;;17.57;8.73;;;4.70;99.90;;;;;;6185627;23;20075;-65
2024/01/23 09:28:37;;;;;;;12.83;8.47;;;4.80;99.90;;;;;;6186525;23;20024;-65
2024/01/23 09:31:02;;;;;;;23.63;12.40;;;4.90;99.90;;;;;;6185773;23;20415;-67
2024/01/23 09:33:28;;;;;;;29.70;13.63;;;5.00;99.90;;;;;;6186201;23;20013;-65
2024/01/23 09:35:54;;;;;;;29.60;14.00;;;5.10;99.90;;;;;;6185699;23;20005;-66
2024/01/23 09:38:21;;;;;;;38.47;13.03;;;5.20;99.90;;;;;;6185256;23;20060;-65
2024/01/23 09:40:49;;;;;;;25.73;13.93;;;5.20;99.90;;;;;;6185474;23;19997;-65
2024/01/23 09:43:19;;;;;;;26.10;13.60;;;5.30;99.90;;;;;;6186190;23;20001;-65
2024/01/23 09:45:47;;;;;;;43.73;15.30;;;5.30;99.90;;;;;;6186061;23;20040;-65
2024/01/23 09:48:15;;;;;;;40.20;15.57;;;5.40;99.90;;;;;;6186350;23;20327;-65
2024/01/23 09:50:44;;;;;;;41.70;14.97;;;5.50;99.90;;;;;;6185923;23;19998;-65
2024/01/23 09:53:10;;;;;;;50.13;17.97;;;5.50;99.90;;;;;;6186073;23;20001;-65
2024/01/23 09:55:37;;;;;;;42.43;15.50;;;5.50;99.90;;;;;;6185989;23;20007;-65
2024/01/23 09:58:04;;;;;;;38.33;14.00;;;5.60;99.90;;;;;;6185871;23;20037;-65
2024/01/23 10:00:30;;;;;;;33.00;15.77;;;5.70;99.90;;;;;;6186277;23;20012;-65
2024/01/23 10:02:56;;;;;;;32.90;13.97;;;5.70;99.90;;;;;;6186473;23;20009;-65
2024/01/23 10:05:22;;;;;;;37.47;15.13;;;5.80;99.90;;;;;;6200162;23;20390;-65
2024/01/23 10:07:48;;;;;;;29.17;14.43;;;5.80;99.90;;;;;;6216663;23;20025;-65
2024/01/23 10:10:58;;;;;;;;;;;;;;;;;;;;;
2024/01/23 10:13:42;;;;;;;31.63;15.50;;;6.00;99.90;;;;;;6166866;23;20092;-64
2024/01/23 10:16:27;;;;;;;19.60;10.70;;;6.10;99.90;;;;;;6215803;23;20178;-64
2024/01/23 10:19:33;;;;;;;;;;;;;;;;;;;;;
2024/01/23 10:25:58;;;;;;;15.23;6.20;;;6.30;98.90;;;;;;5980705;24;20032;-64
2024/01/23 10:28:45;;;;;;;12.20;7.03;;;6.50;98.70;;;;;;6065277;23;20390;-66
2024/01/23 10:31:33;;;;;;;14.03;6.67;;;;;;;;;;6213581;23;19997;-64
2024/01/23 10:34:01;;;;;;;13.37;5.70;;;;;;;;;;6213929;23;20004;-64
2024/01/23 10:36:27;;;;;;;9.37;6.00;;;6.80;97.80;;;;;;6215674;23;20335;-65
2024/01/23 10:38:54;;;;;;;10.60;5.90;;;;;;;;;;6215308;23;20354;-65
2024/01/23 10:41:23;;;;;;;10.73;5.90;;;6.90;97.80;;;;;;6215144;23;20007;-65
2024/01/23 10:43:52;;;;;;;15.37;6.17;;;7.10;98.00;;;;;;6215437;23;20015;-65
2024/01/23 10:46:18;;;;;;;13.67;7.00;;;7.10;98.00;;;;;;6215373;23;20027;-65
2024/01/23 10:48:44;;;;;;;10.20;6.30;;;7.30;98.00;;;;;;6213935;23;20304;-65
2024/01/23 10:51:20;;;;;;;11.77;6.37;;;7.40;97.90;;;;;;6214468;23;20008;-65
2024/01/23 10:53:57;;;;;;;19.07;7.60;;;7.50;97.70;;;;;;6215674;23;20047;-65
2024/01/23 10:56:24;;;;;;;13.57;7.50;;;7.60;97.40;;;;;;6215586;23;20378;-64
2024/01/23 10:59:02;;;;;;;15.00;6.80;;;7.60;97.20;;;;;;6215217;23;20047;-65
2024/01/23 11:01:33;;;;;;;10.03;4.60;;;;;;;;;;6215272;23;20546;-64
2024/01/23 11:04:03;;;;;;;9.07;4.33;;;7.90;95.80;;;;;;6212721;23;20439;-66
2024/01/23 11:06:38;;;;;;;12.27;4.40;;;7.90;95.60;;;;;;6211574;23;20017;-65
2024/01/23 11:09:20;;;;;;;10.83;4.40;;;8.20;99.00;;;;;;6212284;23;20054;-64
2024/01/23 11:12:03;;;;;;;11.30;4.90;;;8.20;96.50;;;;;;6214822;23;20007;-64
2024/01/23 11:14:50;;;;;;;12.70;6.47;;;8.20;94.90;;;;;;6214530;23;20026;-65
2024/01/23 11:17:17;;;;;;;11.80;4.83;;;;;;;;;;6214627;23;20438;-64
2024/01/23 11:19:44;;;;;;;13.07;4.93;;;;;;;;;;6214517;23;20004;-64
2024/01/23 11:22:10;;;;;;;8.10;4.10;;;8.30;94.40;;;;;;6214598;23;20059;-66
2024/01/23 11:24:39;;;;;;;10.90;4.60;;;8.50;93.90;;;;;;6212895;23;20000;-71
2024/01/23 11:27:06;;;;;;;10.87;4.27;;;8.60;93.60;;;;;;6214925;23;20009;-73
2024/01/23 11:29:33;;;;;;;10.83;4.30;;;8.70;93.30;;;;;;6215383;23;20004;-68
2024/01/23 11:31:59;;;;;;;9.37;4.57;;;8.70;93.80;;;;;;6214968;23;20435;-76
2024/01/23 11:34:29;;;;;;;6.77;4.17;;;;;;;;;;6215525;23;20000;-65
2024/01/23 11:36:56;;;;;;;11.07;5.33;;;8.80;93.30;;;;;;6215499;23;20342;-65
2024/01/23 11:39:23;;;;;;;14.50;4.40;;;8.90;93.40;;;;;;6215751;23;20003;-65
2024/01/23 11:41:50;;;;;;;8.23;4.13;;;9.00;93.40;;;;;;6215639;23;20308;-65
2024/01/23 11:44:16;;;;;;;10.93;4.23;;;9.10;92.80;;;;;;6215274;23;19997;-65
2024/01/23 11:50:26;;;;;;;7.80;4.00;;;9.20;93.60;;;;;;6215351;23;20055;-64
2024/01/23 11:53:37;;;;;;;10.77;4.10;;;9.40;94.20;;;;;;6211714;23;20023;-65
2024/01/23 11:59:28;;;;;;;6.77;2.57;;;9.40;91.80;;;;;;6005392;23;20052;-66
2024/01/23 12:06:17;;;;;;;8.63;3.03;;;9.60;90.60;;;;;;5739648;25;20035;-65
2024/01/23 12:12:06;;;;;;;14.38;3.22;;;9.80;90.30;;;;;;5729504;24;20044;-66
2024/01/23 12:14:32;;;;;;;10.63;3.37;;;9.80;89.70;;;;;;5987323;23;20018;-64
2024/01/23 12:17:04;;;;;;;11.10;3.97;;;9.90;90.20;;;;;;6119968;23;20036;-65
2024/01/23 12:19:44;;;;;;;9.40;4.03;;;10.00;89.30;;;;;;6216254;23;20352;-65
2024/01/23 12:22:10;;;;;;;9.07;3.73;;;10.10;89.60;;;;;;6215880;23;20001;-64
2024/01/23 12:24:37;;;;;;;10.23;4.10;;;10.10;89.40;;;;;;6216441;23;20001;-65
2024/01/23 12:27:03;;;;;;;13.13;4.97;;;10.20;90.00;;;;;;6216208;23;20008;-65
2024/01/23 12:29:28;;;;;;;9.27;4.10;;;10.30;90.20;;;;;;6216125;23;20008;-65
2024/01/23 12:31:59;;;;;;;8.77;4.23;;;10.30;89.50;;;;;;6216307;23;20069;-66
2024/01/23 12:34:24;;;;;;;17.13;4.07;;;10.40;89.80;;;;;;6216874;23;20005;-65
2024/01/23 12:36:50;;;;;;;9.10;4.13;;;10.40;89.60;;;;;;6216090;23;20430;-65
2024/01/23 12:39:17;;;;;;;6.37;3.60;;;10.50;89.70;;;;;;6216201;23;20001;-64
2024/01/23 12:41:43;;;;;;;15.90;7.73;;;10.50;90.40;;;;;;6216087;23;20493;-65
2024/01/23 12:44:10;;;;;;;16.90;8.10;;;10.60;90.00;;;;;;6216002;23;20058;-65
2024/01/23 12:46:36;;;;;;;10.73;4.87;;;10.60;90.30;;;;;;6215946;23;20001;-65
2024/01/23 12:49:05;;;;;;;13.97;3.73;;;10.60;90.10;;;;;;6215364;23;20028;-65
2024/01/23 12:51:31;;;;;;;10.07;3.50;;;10.60;89.70;;;;;;6215637;23;20009;-64
2024/01/23 12:53:58;;;;;;;7.13;4.20;;;10.60;90.00;;;;;;6215304;23;20080;-65
2024/01/23 12:56:24;;;;;;;9.33;3.63;;;10.70;90.40;;;;;;6214706;23;20012;-65
2024/01/23 12:58:53;;;;;;;11.53;3.83;;;10.70;90.10;;;;;;6216181;23;20028;-65
2024/01/23 13:01:19;;;;;;;11.57;3.50;;;10.70;90.50;;;;;;6215997;23;20001;-65
2024/01/23 13:03:46;;;;;;;5.83;3.27;;;10.70;90.50;;;;;;6215688;23;20091;-66
2024/01/23 13:06:12;;;;;;;10.50;3.60;;;10.70;90.00;;;;;;6215909;23;20008;-64
2024/01/23 13:08:37;;;;;;;8.67;3.60;;;10.70;89.70;;;;;;6189363;23;20013;-65
2024/01/23 13:11:03;;;;;;;9.43;3.30;;;10.70;90.30;;;;;;6185580;23;20056;-66
2024/01/23 13:13:30;;;;;;;11.70;5.20;;;10.70;90.10;;;;;;6185632;23;20001;-66
2024/01/23 13:15:55;;;;;;;7.20;4.20;;;10.70;90.30;;;;;;6185917;23;20009;-65
2024/01/23 13:18:21;;;;;;;10.20;4.17;;;10.70;90.60;;;;;;6186078;23;20443;-65
2024/01/23 13:20:48;;;;;;;7.43;3.03;;;10.70;90.20;;;;;;6185260;23;20072;-64
2024/01/23 13:23:14;;;;;;;5.90;2.90;;;10.70;90.10;;;;;;6185739;23;20008;-65
2024/01/23 13:29:44;;;;;;;9.73;2.93;;;10.80;90.10;;;;;;6037414;23;20450;-65
2024/01/23 13:48:56;;;;;;;6.47;4.20;;;10.70;90.30;;;;;;5953303;24;20057;-64
2024/01/23 13:51:22;;;;;;;6.47;2.73;;;10.80;90.40;;;;;;5993543;23;20067;-64
2024/01/23 13:53:48;;;;;;;5.63;2.60;;;10.70;90.20;;;;;;6153989;23;20426;-64
2024/01/23 13:56:14;;;;;;;10.40;3.07;;;10.70;90.20;;;;;;6185812;23;20083;-64
2024/01/23 13:58:40;;;;;;;9.93;4.50;;;10.70;90.20;;;;;;6185953;23;20397;-64
2024/01/23 14:01:06;;;;;;;7.63;2.83;;;10.70;90.00;;;;;;6185678;23;20001;-64
2024/01/23 14:03:33;;;;;;;7.77;4.20;;;10.70;90.10;;;;;;6185574;23;20005;-64
2024/01/23 14:06:00;;;;;;;11.10;3.50;;;10.70;90.10;;;;;;6185474;23;20061;-64
2024/01/23 14:08:27;;;;;;;4.77;2.60;;;10.70;90.80;;;;;;6185656;23;20344;-63
2024/01/23 14:10:53;;;;;;;8.73;2.97;;;10.70;90.90;;;;;;6185687;23;20005;-63
2024/01/23 14:13:19;;;;;;;8.37;3.17;;;10.70;90.90;;;;;;6185400;23;20039;-64
2024/01/23 14:15:44;;;;;;;6.37;2.63;;;10.70;90.90;;;;;;6185107;23;20052;-64
2024/01/23 14:18:10;;;;;;;5.90;3.30;;;10.70;91.20;;;;;;6185715;23;20016;-64
2024/01/23 14:20:36;;;;;;;7.03;3.00;;;10.60;91.10;;;;;;6183534;23;20032;-64
2024/01/23 14:23:02;;;;;;;8.23;3.83;;;10.60;90.90;;;;;;6185674;23;20005;-64
2024/01/23 14:25:28;;;;;;;10.17;3.30;;;10.70;90.80;;;;;;6184172;23;20009;-64
2024/01/23 14:27:54;;;;;;;13.73;6.13;;;10.70;90.70;;;;;;6185660;23;19997;-64
2024/01/23 14:30:20;;;;;;;18.53;7.90;;;10.70;90.70;;;;;;6158830;23;20039;-64
2024/01/23 14:32:46;;;;;;;32.33;16.83;;;10.70;90.90;;;;;;6185458;23;19998;-64
2024/01/23 14:35:13;;;;;;;64.53;34.40;;;10.70;91.20;;;;;;6185620;23;20031;-64
2024/01/23 14:37:38;;;;;;;18.30;8.93;;;10.70;91.10;;;;;;6185449;23;20048;-64